»·PEaware :: SWA427 KOAK-KLAX

SWA427 :: KOAK-KLAX

FLIGHT INFORMATION

Flight Status: Arrived
Operator:
Southwest Airlines
More flights by this operator :: More flights under this callsign
Pilot: Ben F. (13029)
Aircraft: BOEING 737-300
(B733)
More flights by this aircraft type
Origin: KOAK Metro Oakland Intl
United States
Destination: KLAX Los Angeles Intl
United States
More flights between these airports :: More routes between these airports
Route: +CNDEL4 EBAYE BURGL IRNMN2
File this flight plan on PilotEdge
Remarks: RMK / SIMBRIEF
Altitude:
(Current/Filed)
35,000ft
Speed:
(Current/Filed)
413kts
Departed: 03-Mar-19 03:01 PM
Arrived: 03-Mar-19 04:13 PM
Distance/Time
Traveled:
293nm/1:12
Distance/Time
To Go:
Arrived

Flight Plot

Page will automatically refresh every two minutes.

Flight plan parsing failed; only flown route is shown


Map Options




Map Legend


Flown Route
Filed Route
Departure Airport
Arrival Airport
Navaid (VOR, NDB)
Fix

Horizontal Profiles

Position Reports

Time Latitude Longitude Heading Altitude Ground
Speed
03-Mar-19 14:38 37.708884 -122.213502 113 10ft 0kts
03-Mar-19 14:39 37.708884 -122.213502 113 10ft 0kts
03-Mar-19 14:40 37.708884 -122.213502 113 10ft 0kts
03-Mar-19 14:41 37.708884 -122.213502 113 10ft 0kts
03-Mar-19 14:42 37.708884 -122.213502 113 10ft 0kts
03-Mar-19 14:43 37.708884 -122.213502 113 10ft 0kts
03-Mar-19 14:44 37.708884 -122.213502 113 10ft 0kts
03-Mar-19 14:45 37.708884 -122.213502 113 10ft 0kts
03-Mar-19 14:46 37.708884 -122.213502 113 10ft 0kts
03-Mar-19 14:47 37.708884 -122.213502 113 10ft 0kts
03-Mar-19 14:48 37.708884 -122.213502 113 10ft 0kts
03-Mar-19 14:49 37.708884 -122.213502 113 10ft 0kts
03-Mar-19 14:50 37.708884 -122.213502 113 10ft 0kts
03-Mar-19 14:51 37.709275 -122.213984 171 10ft 2kts
03-Mar-19 14:52 37.709669 -122.213838 218 10ft 0kts
03-Mar-19 14:53 37.709669 -122.213838 218 10ft 0kts
03-Mar-19 14:54 37.709669 -122.213838 218 10ft 0kts
03-Mar-19 14:55 37.709611 -122.213896 218 10ft 2kts
03-Mar-19 14:57 37.707707 -122.217037 219 10ft 19kts
03-Mar-19 14:58 37.703194 -122.213772 162 10ft 23kts
03-Mar-19 14:59 37.702831 -122.213622 165 10ft 0kts
03-Mar-19 15:00 37.702188 -122.215279 310 10ft 6kts
03-Mar-19 15:01 37.717112 -122.238179 307 539ft 154kts
03-Mar-19 15:02 37.745073 -122.280026 310 2002ft 157kts
03-Mar-19 15:03 37.774621 -122.323898 310 3744ft 167kts
03-Mar-19 15:04 37.790322 -122.376848 253 5595ft 172kts
03-Mar-19 15:05 37.753174 -122.409127 172 7305ft 185kts
03-Mar-19 15:06 37.695467 -122.396847 170 8696ft 238kts
03-Mar-19 15:07 37.622926 -122.411983 200 10076ft 303kts
03-Mar-19 15:08 37.536542 -122.452582 200 12158ft 343kts
03-Mar-19 15:09 37.451239 -122.422120 132 14858ft 357kts
03-Mar-19 15:10 37.382477 -122.328299 132 17528ft 371kts
03-Mar-19 15:11 37.310742 -122.230866 133 19938ft 385kts
03-Mar-19 15:12 37.236726 -122.130663 133 22119ft 398kts
03-Mar-19 15:13 37.160041 -122.027173 133 24118ft 410kts
03-Mar-19 15:14 37.080954 -121.920787 133 25954ft 422kts
03-Mar-19 15:15 37.000623 -121.813082 133 28168ft 418kts
03-Mar-19 15:16 36.921390 -121.707196 133 30048ft 415kts
03-Mar-19 15:16 36.855556 -121.619773 133 31383ft 413kts
03-Mar-19 15:17 36.777141 -121.515705 132 32722ft 414kts
03-Mar-19 15:19 36.684128 -121.392582 132 33883ft 419kts
03-Mar-19 15:20 36.603007 -121.285340 133 34724ft 425kts
03-Mar-19 15:20 36.534766 -121.195544 133 34897ft 428kts
03-Mar-19 15:21 36.453281 -121.088708 133 34878ft 426kts
03-Mar-19 15:22 36.373934 -120.978973 130 34883ft 426kts
03-Mar-19 15:24 36.283632 -120.849237 130 34882ft 426kts
03-Mar-19 15:24 36.219029 -120.756723 130 34882ft 426kts
03-Mar-19 15:25 36.141146 -120.645532 130 34882ft 426kts
03-Mar-19 15:26 36.063302 -120.534762 130 34882ft 426kts
03-Mar-19 15:27 35.985377 -120.424241 130 34882ft 426kts
03-Mar-19 15:28 35.907098 -120.313452 131 34869ft 426kts
03-Mar-19 15:29 35.816334 -120.219794 149 35006ft 428kts
03-Mar-19 15:30 35.714035 -120.143756 148 35003ft 427kts
03-Mar-19 15:31 35.612924 -120.067600 148 35002ft 427kts
03-Mar-19 15:32 35.511437 -119.991063 148 35016ft 425kts
03-Mar-19 15:33 35.411368 -119.915790 148 34997ft 422kts
03-Mar-19 15:34 35.311451 -119.840850 148 34825ft 420kts
03-Mar-19 15:35 35.216196 -119.756349 142 31833ft 420kts
03-Mar-19 15:36 35.122696 -119.668837 142 28528ft 428kts
03-Mar-19 15:37 35.027792 -119.580416 142 26135ft 426kts
03-Mar-19 15:38 34.933182 -119.492576 142 26036ft 412kts
03-Mar-19 15:39 34.841125 -119.410028 143 24191ft 401kts
03-Mar-19 15:40 34.752556 -119.330808 144 22954ft 390kts
03-Mar-19 15:41 34.664314 -119.253492 144 20302ft 377kts
03-Mar-19 15:42 34.580810 -119.181373 144 19067ft 369kts
03-Mar-19 15:43 34.497612 -119.108111 143 18059ft 368kts
03-Mar-19 15:44 34.416401 -119.036712 144 15819ft 352kts
03-Mar-19 15:45 34.338275 -118.968867 143 13704ft 336kts
03-Mar-19 15:46 34.264369 -118.901815 143 11885ft 311kts
03-Mar-19 15:47 34.197486 -118.840519 142 11873ft 298kts
03-Mar-19 15:48 34.134294 -118.777351 137 10315ft 291kts
03-Mar-19 15:49 34.074673 -118.712400 137 8871ft 274kts
03-Mar-19 15:50 34.027731 -118.643247 97 8568ft 271kts
03-Mar-19 15:51 34.019380 -118.553692 96 7850ft 266kts
03-Mar-19 15:52 34.011693 -118.471835 96 7865ft 236kts
03-Mar-19 15:53 34.021269 -118.393717 77 6502ft 232kts
03-Mar-19 15:54 34.031418 -118.318779 83 5831ft 227kts
03-Mar-19 15:55 34.038153 -118.241503 84 5866ft 229kts
03-Mar-19 15:56 34.044437 -118.165536 84 5863ft 229kts
03-Mar-19 15:57 34.050833 -118.088005 84 5864ft 229kts
03-Mar-19 15:58 34.057160 -118.010583 84 5863ft 229kts
03-Mar-19 15:59 34.063428 -117.933444 84 5863ft 229kts
03-Mar-19 16:00 34.069646 -117.856283 84 5864ft 229kts
03-Mar-19 16:01 34.031580 -117.814647 208 5855ft 229kts
03-Mar-19 16:02 34.002709 -117.882213 256 5866ft 230kts
03-Mar-19 16:03 33.995381 -117.959161 266 5863ft 229kts
03-Mar-19 16:04 33.989923 -118.035659 263 4842ft 218kts
03-Mar-19 16:05 33.982585 -118.105027 262 4867ft 190kts
03-Mar-19 16:06 33.976513 -118.164116 263 3780ft 177kts
03-Mar-19 16:07 33.970484 -118.223434 263 2412ft 176kts
03-Mar-19 16:08 33.964921 -118.277870 263 2111ft 144kts
03-Mar-19 16:09 33.960037 -118.325457 263 1386ft 138kts
03-Mar-19 16:10 33.955325 -118.371050 263 670ft 137kts
03-Mar-19 16:11 33.950838 -118.414272 263 110ft 91kts
03-Mar-19 16:12 33.947981 -118.427333 213 110ft 23kts
03-Mar-19 16:13 33.946797 -118.422603 82 110ft 22kts
03-Mar-19 16:14 33.947661 -118.414362 77 110ft 26kts
03-Mar-19 16:15 33.948752 -118.404854 82 110ft 30kts
03-Mar-19 16:16 33.947376 -118.401825 113 110ft 0kts
03-Mar-19 16:17 33.947376 -118.401825 112 110ft 0kts

Navigation Log

Ident Type
Flight plan parsing failed, navigation log unavailable